createdAt,value
2022-12-10T00:00:06.618Z,37.60
2022-12-10T00:03:15.775Z,37.50
2022-12-10T00:06:22.110Z,37.50
2022-12-10T00:09:40.142Z,37.50
2022-12-10T00:12:46.819Z,37.60
2022-12-10T00:15:58.217Z,37.70
2022-12-10T00:19:04.876Z,37.50
2022-12-10T00:22:16.046Z,37.60
2022-12-10T00:25:28.279Z,37.50
2022-12-10T00:28:34.971Z,37.50
2022-12-10T00:31:47.044Z,37.50
2022-12-10T00:34:58.360Z,37.50
2022-12-10T00:38:05.067Z,37.60
2022-12-10T00:41:22.415Z,37.50
2022-12-10T00:44:29.130Z,37.40
2022-12-10T00:47:34.524Z,37.40
2022-12-10T00:50:41.191Z,37.40
2022-12-10T00:53:46.518Z,37.40
2022-12-10T00:56:59.245Z,37.50
2022-12-10T01:00:10.905Z,37.50
2022-12-10T01:03:11.306Z,37.40
2022-12-10T01:06:16.626Z,37.40
2022-12-10T01:09:22.655Z,37.30
2022-12-10T01:12:34.679Z,37.30
2022-12-10T01:19:21.794Z,37.40
2022-12-10T01:26:16.798Z,37.50
2022-12-10T01:30:03.907Z,37.50
2022-12-10T01:47:34.638Z,37.60
2022-12-10T01:50:40.672Z,37.60
2022-12-10T01:53:52.698Z,37.50
2022-12-10T01:57:10.732Z,37.50
2022-12-10T02:00:53.146Z,37.40
2022-12-10T02:32:45.605Z,37.50
2022-12-10T02:36:15.306Z,37.60
2022-12-10T02:39:33.605Z,37.60
2022-12-10T02:43:05.184Z,37.50
2022-12-10T02:46:29.219Z,37.40
2022-12-10T02:50:09.535Z,37.40
2022-12-10T02:53:45.318Z,38.10
2022-12-10T02:57:15.346Z,37.40
2022-12-10T03:00:45.409Z,37.40
2022-12-10T03:04:21.307Z,37.50
2022-12-10T03:07:45.497Z,37.50
2022-12-10T03:11:03.473Z,37.50
2022-12-10T03:14:16.113Z,37.40
2022-12-10T03:17:27.501Z,38.10
2022-12-10T03:20:39.579Z,37.40
2022-12-10T03:23:51.610Z,37.50
2022-12-10T03:27:03.644Z,37.40
2022-12-10T03:30:15.671Z,37.50
2022-12-10T03:33:21.700Z,37.40
2022-12-10T03:36:27.420Z,37.50
2022-12-10T03:39:39.763Z,37.40
2022-12-10T03:42:45.785Z,37.40
2022-12-10T03:45:51.845Z,37.40
2022-12-10T03:48:57.840Z,37.30
2022-12-10T03:52:09.882Z,37.30
2022-12-10T03:55:21.898Z,37.50
2022-12-10T03:58:27.925Z,37.50
2022-12-10T04:01:34.017Z,37.40
2022-12-10T04:04:45.996Z,37.40
2022-12-10T04:07:48.015Z,37.50
2022-12-10T04:10:52.056Z,37.40
2022-12-10T04:14:10.090Z,37.40
2022-12-10T04:17:22.123Z,37.40
2022-12-10T04:20:46.156Z,37.40
2022-12-10T04:23:52.182Z,37.40
2022-12-10T04:27:16.214Z,37.40
2022-12-10T04:30:28.248Z,37.40
2022-12-10T04:33:40.281Z,37.60
2022-12-10T04:36:46.314Z,37.50
2022-12-10T04:39:52.343Z,37.40
2022-12-10T04:43:04.377Z,37.40
2022-12-10T04:46:10.442Z,37.50
2022-12-10T04:49:22.444Z,37.40
2022-12-10T04:52:34.472Z,37.60
2022-12-10T04:55:28.192Z,37.50
2022-12-10T04:58:46.222Z,37.60
2022-12-10T05:01:58.561Z,37.40
2022-12-10T05:05:04.593Z,37.50
2022-12-10T05:08:16.655Z,37.30
2022-12-10T05:11:28.349Z,37.50
2022-12-10T05:14:46.688Z,37.50
2022-12-10T05:17:52.716Z,37.50
2022-12-10T05:20:58.746Z,37.50
2022-12-10T05:24:10.463Z,37.50
2022-12-10T05:27:22.803Z,37.50
2022-12-10T05:30:34.526Z,37.50
2022-12-10T05:33:46.862Z,37.50
2022-12-10T05:36:52.894Z,37.90
2022-12-10T05:39:58.920Z,37.50
2022-12-10T05:43:04.949Z,37.60
2022-12-10T05:46:16.994Z,37.50
2022-12-10T06:12:34.931Z,37.50
2022-12-10T06:24:11.379Z,37.50
2022-12-10T06:27:35.412Z,37.50
2022-12-10T07:40:39.071Z,37.70
2022-12-10T07:44:06.777Z,37.70
2022-12-10T07:47:36.484Z,37.70
2022-12-10T07:51:00.367Z,37.60
2022-12-10T07:54:31.591Z,37.60
2022-12-10T07:58:05.948Z,37.70
2022-12-10T08:01:35.980Z,37.80
2022-12-10T08:05:03.276Z,37.70
2022-12-10T08:08:36.090Z,37.70
2022-12-10T08:12:03.359Z,37.60
2022-12-10T08:15:39.393Z,37.60
2022-12-10T08:19:03.428Z,37.60
2022-12-10T08:22:36.181Z,37.60
2022-12-10T08:25:57.496Z,37.60
2022-12-10T08:29:32.679Z,37.60
2022-12-10T08:32:57.561Z,37.60
2022-12-10T08:36:32.938Z,37.60
2022-12-10T08:39:54.334Z,37.70
2022-12-10T08:46:51.682Z,37.60
2022-12-10T08:50:21.706Z,37.40
2022-12-10T08:53:51.737Z,37.50
2022-12-10T08:57:18.514Z,37.40
2022-12-10T09:00:51.808Z,37.60
2022-12-10T09:04:21.826Z,37.40
2022-12-10T09:11:33.737Z,37.40
2022-12-10T09:14:57.913Z,37.30
2022-12-10T09:18:27.945Z,37.20
2022-12-10T09:21:57.975Z,37.20
2022-12-10T09:25:40.007Z,37.20
2022-12-10T09:29:10.035Z,37.20
2022-12-10T09:32:40.067Z,37.30
2022-12-10T09:36:10.097Z,37.30
2022-12-10T09:39:40.129Z,37.50
2022-12-10T09:43:22.164Z,37.60
2022-12-10T09:46:58.187Z,37.80
2022-12-10T09:50:30.951Z,37.90
2022-12-10T09:53:52.247Z,38.10
2022-12-10T09:57:28.274Z,38.10
2022-12-10T10:01:04.350Z,37.90
2022-12-10T10:04:37.076Z,38.30
2022-12-10T10:08:04.397Z,38.30
2022-12-10T10:11:37.136Z,39.50
2022-12-10T10:14:49.168Z,39.30
2022-12-10T10:18:04.455Z,39.70
2022-12-10T10:21:14.523Z,38.80
2022-12-10T10:24:19.816Z,38.60
2022-12-10T10:27:31.284Z,38.40
2022-12-10T10:30:43.322Z,38.20
2022-12-10T10:33:49.896Z,38.00
2022-12-10T10:36:55.962Z,37.90
2022-12-10T10:40:07.739Z,37.70
2022-12-10T10:43:07.976Z,37.60
2022-12-10T10:46:13.457Z,37.50
2022-12-10T10:49:49.455Z,37.40
2022-12-10T10:53:01.487Z,37.20
2022-12-10T10:56:08.089Z,37.30
2022-12-10T10:59:20.119Z,37.40
2022-12-10T11:02:37.641Z,37.30
2022-12-10T11:05:43.602Z,37.30
2022-12-10T11:08:50.209Z,37.20
2022-12-10T11:12:01.652Z,37.20
2022-12-10T11:15:08.256Z,37.10
2022-12-10T11:18:13.706Z,37.10
2022-12-10T11:21:44.324Z,37.10
2022-12-10T11:25:14.362Z,37.10
2022-12-10T11:29:08.399Z,37.00
2022-12-10T11:33:02.442Z,37.10
2022-12-10T11:37:02.475Z,37.00
2022-12-10T11:57:02.679Z,37.00
2022-12-10T12:00:38.720Z,37.00
2022-12-10T12:04:14.756Z,37.00
2022-12-10T12:11:44.834Z,36.90
2022-12-10T12:15:26.872Z,37.00
2022-12-10T12:22:44.235Z,36.90
2022-12-10T12:26:26.975Z,36.90
2022-12-10T12:30:15.006Z,37.00
2022-12-10T12:34:03.039Z,36.90
2022-12-10T12:40:57.118Z,36.90
2022-12-10T12:44:44.421Z,36.70
2022-12-10T12:48:09.192Z,36.80
2022-12-10T12:52:15.223Z,36.70
2022-12-10T12:55:57.265Z,36.70
2022-12-10T12:59:27.299Z,36.70
2022-12-10T13:02:57.388Z,36.70
2022-12-10T13:06:27.371Z,36.80
2022-12-10T13:10:33.415Z,36.70
2022-12-10T13:13:56.660Z,36.70
2022-12-10T13:17:57.481Z,36.70
2022-12-10T13:21:44.737Z,36.80
2022-12-10T13:25:33.549Z,36.80
2022-12-10T13:29:44.814Z,36.80
2022-12-10T13:33:15.618Z,36.80
2022-12-10T13:36:44.879Z,36.70
2022-12-10T13:40:10.009Z,36.80
2022-12-10T13:44:09.714Z,36.80
2022-12-10T13:48:09.750Z,36.70
2022-12-10T13:51:45.784Z,36.70
2022-12-10T14:06:45.932Z,36.90
2022-12-10T14:10:21.979Z,36.80
2022-12-10T14:14:03.992Z,36.80
2022-12-10T14:17:57.288Z,36.90
2022-12-10T14:45:45.248Z,36.90
2022-12-10T15:25:20.875Z,36.90
2022-12-10T15:28:51.974Z,36.90
2022-12-10T15:32:20.944Z,36.90
2022-12-10T15:35:52.045Z,36.90
2022-12-10T15:39:22.081Z,36.90
2022-12-10T15:43:15.038Z,37.00
2022-12-10T15:46:45.064Z,36.90
2022-12-10T15:49:55.459Z,37.00
2022-12-10T15:53:15.135Z,37.00
2022-12-10T17:18:03.889Z,36.90
2022-12-10T17:22:13.142Z,36.90
2022-12-10T17:25:54.078Z,37.50
2022-12-10T17:29:27.988Z,36.90
2022-12-10T17:32:41.937Z,36.90
2022-12-10T17:35:53.647Z,36.90
2022-12-10T17:38:59.192Z,36.90
2022-12-10T17:42:11.526Z,36.90
2022-12-10T17:45:23.242Z,36.90
2022-12-10T17:48:35.581Z,37.60
2022-12-10T17:51:41.297Z,37.00
2022-12-10T17:54:53.324Z,37.00
2022-12-10T17:58:04.227Z,37.00
2022-12-10T18:01:17.714Z,36.90
2022-12-10T18:04:23.404Z,36.90
2022-12-10T18:07:35.740Z,36.90
2022-12-10T18:10:47.461Z,36.90
2022-12-10T18:13:53.802Z,36.80
2022-12-10T18:17:05.547Z,36.90
2022-12-10T18:20:12.052Z,36.80
2022-12-10T18:23:17.580Z,36.90
2022-12-10T18:26:29.612Z,36.90
2022-12-10T18:29:35.652Z,36.90
2022-12-10T18:32:53.984Z,36.90
2022-12-10T18:35:59.708Z,36.90
2022-12-10T18:39:12.049Z,36.90
2022-12-10T18:42:17.771Z,36.80
2022-12-10T18:45:30.110Z,36.90
2022-12-10T18:48:47.832Z,37.00
2022-12-10T18:51:54.167Z,36.90
2022-12-10T18:55:05.890Z,36.90
2022-12-10T18:58:18.223Z,36.90
2022-12-10T19:01:30.005Z,36.90
2022-12-10T19:04:42.275Z,36.90
2022-12-10T19:07:53.764Z,36.90
2022-12-10T19:11:18.335Z,36.80
2022-12-10T19:14:24.051Z,36.80
2022-12-10T19:17:30.384Z,36.80
2022-12-10T19:20:50.066Z,36.70
2022-12-10T19:35:06.535Z,36.70
2022-12-10T19:42:30.593Z,36.60
2022-12-10T19:46:00.646Z,36.60
2022-12-10T19:49:30.655Z,36.70
2022-12-10T19:53:06.376Z,36.70
2022-12-10T19:57:00.720Z,36.80
2022-12-10T20:00:18.660Z,36.80
2022-12-10T20:03:54.464Z,36.80
2022-12-10T20:07:24.804Z,36.70
2022-12-10T20:11:00.833Z,36.80
2022-12-10T20:14:36.862Z,36.80
2022-12-10T20:18:06.893Z,36.80
2022-12-10T20:21:36.921Z,36.80
2022-12-10T20:25:06.725Z,36.80
2022-12-10T20:28:18.977Z,36.90
2022-12-10T20:31:30.755Z,36.80
2022-12-10T20:34:36.723Z,36.90
2022-12-10T20:37:42.747Z,36.90
2022-12-10T20:40:49.081Z,36.90
2022-12-10T20:43:54.797Z,36.90
2022-12-10T20:47:06.827Z,36.90
2022-12-10T20:50:17.616Z,36.90
2022-12-10T20:53:25.184Z,36.90
2022-12-10T20:56:36.904Z,36.90
2022-12-10T20:59:42.928Z,36.90
2022-12-10T21:02:55.010Z,36.90
2022-12-10T21:06:00.979Z,36.90
2022-12-10T21:09:01.316Z,36.90
2022-12-10T21:12:07.028Z,36.90
2022-12-10T21:15:23.433Z,36.90
2022-12-10T21:18:31.083Z,36.90
2022-12-10T21:21:37.111Z,36.90
2022-12-10T21:24:43.449Z,36.90
2022-12-10T21:28:01.476Z,37.00
2022-12-10T21:44:06.065Z,36.90
2022-12-10T22:04:24.229Z,36.90
2022-12-10T22:08:06.010Z,36.90
2022-12-10T22:11:42.286Z,37.00
2022-12-10T22:15:12.519Z,37.00
2022-12-10T22:22:24.372Z,36.90
2022-12-10T22:26:12.401Z,36.90
2022-12-10T22:29:24.470Z,36.90
2022-12-10T22:36:12.486Z,36.90
2022-12-10T22:40:18.516Z,36.90
2022-12-10T22:43:50.417Z,36.90
2022-12-10T22:47:42.589Z,37.00
2022-12-10T22:52:00.622Z,37.00
2022-12-10T22:56:06.656Z,37.20
2022-12-10T22:59:36.374Z,36.90
2022-12-10T23:03:12.714Z,36.80
2022-12-10T23:06:42.741Z,36.90
2022-12-10T23:10:06.772Z,36.80
2022-12-10T23:17:48.832Z,36.90
2022-12-10T23:21:12.859Z,36.90
2022-12-10T23:24:42.888Z,36.80
2022-12-10T23:28:18.915Z,36.90
2022-12-10T23:31:49.006Z,36.90
2022-12-10T23:35:13.164Z,36.90
2022-12-10T23:38:55.008Z,36.90
2022-12-10T23:42:25.038Z,36.90
2022-12-10T23:46:13.151Z,36.90
2022-12-10T23:57:06.851Z,36.90
